createdAt,value
2018-11-02T12:22:37.085Z,669.37
2018-11-02T12:23:37.072Z,691.87
2018-11-02T12:24:37.061Z,697.50
2018-11-02T12:25:37.048Z,551.25
2018-11-02T12:26:37.042Z,804.37
2018-11-02T12:27:37.028Z,596.25
2018-11-02T12:28:37.049Z,703.12
2018-11-02T12:29:37.007Z,585.00
2018-11-02T12:30:37.059Z,703.12
2018-11-02T12:31:36.981Z,641.25
2018-11-02T12:32:36.978Z,658.12
2018-11-02T12:33:36.958Z,675.00
2018-11-02T12:34:36.947Z,635.62
2018-11-02T12:35:36.936Z,590.62
2018-11-02T12:36:36.925Z,585.00
2018-11-02T12:37:36.918Z,556.87
2018-11-02T12:38:36.902Z,309.37
2018-11-02T12:39:36.892Z,461.25
2018-11-02T12:40:36.958Z,506.25
2018-11-02T12:41:36.873Z,489.37
2018-11-02T12:42:36.860Z,500.62
2018-11-02T12:43:37.060Z,528.75
2018-11-02T12:44:36.837Z,545.62
2018-11-02T12:45:36.826Z,556.87
2018-11-02T12:46:36.815Z,343.12
2018-11-02T12:47:36.819Z,225.00
2018-11-02T12:48:36.947Z,247.50
2018-11-02T12:49:37.260Z,202.50
2018-11-02T12:50:36.918Z,208.12
2018-11-02T12:51:36.759Z,202.50
2018-11-02T12:52:36.754Z,196.87
2018-11-02T12:53:36.736Z,191.25
2018-11-02T12:54:36.732Z,185.62
2018-11-02T12:55:36.722Z,180.00
2018-11-02T12:56:36.703Z,174.37
2018-11-02T12:57:36.798Z,168.75
2018-11-02T12:58:36.689Z,157.50
2018-11-02T12:59:36.673Z,151.87
2018-11-02T13:00:36.658Z,146.25
2018-11-02T13:01:36.648Z,140.62
2018-11-02T13:02:36.639Z,135.00
2018-11-02T13:03:36.624Z,129.37
2018-11-02T13:04:36.617Z,129.37
2018-11-02T13:05:36.607Z,140.62
2018-11-02T13:06:36.598Z,151.87
2018-11-02T13:07:36.582Z,157.50
2018-11-02T13:08:36.601Z,163.12
2018-11-02T13:09:36.721Z,264.37
2018-11-02T13:10:36.548Z,219.37
2018-11-02T13:11:36.543Z,180.00
2018-11-02T13:12:36.528Z,163.12
2018-11-02T13:13:36.517Z,157.50
2018-11-02T13:14:36.503Z,151.87
2018-11-02T13:15:36.496Z,146.25
2018-11-02T13:16:36.481Z,140.62
2018-11-02T13:17:36.472Z,140.62
2018-11-02T13:18:36.472Z,140.62
2018-11-02T13:19:36.449Z,129.37
2018-11-02T13:20:36.441Z,123.75
2018-11-02T13:21:36.489Z,123.75
2018-11-02T13:22:36.426Z,123.75
2018-11-02T13:23:36.409Z,123.75
2018-11-02T13:24:36.398Z,123.75
2018-11-02T13:25:36.500Z,123.75
2018-11-02T13:26:36.401Z,118.12
2018-11-02T13:27:36.364Z,112.50
2018-11-02T13:28:36.350Z,95.62
2018-11-02T13:29:36.339Z,84.37
2018-11-02T13:30:36.401Z,73.12
2018-11-02T13:31:36.344Z,73.12
2018-11-02T13:32:36.304Z,73.12
2018-11-02T13:33:36.294Z,73.12
2018-11-02T13:34:36.284Z,78.75
2018-11-02T13:35:36.275Z,84.37
2018-11-02T13:36:36.413Z,95.62
2018-11-02T13:37:36.253Z,106.87
2018-11-02T13:38:36.241Z,106.87
2018-11-02T13:39:36.238Z,106.87
2018-11-02T13:40:36.224Z,112.50
2018-11-02T13:41:36.207Z,123.75
2018-11-02T13:42:36.201Z,123.75
2018-11-02T13:43:36.218Z,112.50
2018-11-02T13:44:36.179Z,101.25
2018-11-02T13:45:36.163Z,90.00
2018-11-02T13:46:36.153Z,84.37
2018-11-02T13:47:36.141Z,78.75
2018-11-02T13:48:36.131Z,84.37
2018-11-02T13:49:36.120Z,84.37
2018-11-02T13:50:36.232Z,90.00
2018-11-02T13:51:36.098Z,90.00
2018-11-02T13:52:36.087Z,95.62
2018-11-02T13:53:36.080Z,112.50
2018-11-02T13:54:36.066Z,123.75
2018-11-02T13:55:36.060Z,123.75
2018-11-02T13:56:36.043Z,123.75
2018-11-02T13:57:36.032Z,135.00
2018-11-02T13:58:36.021Z,140.62
2018-11-02T13:59:36.030Z,135.00
2018-11-02T14:00:36.004Z,135.00
2018-11-02T14:01:35.987Z,140.62
2018-11-02T14:02:35.976Z,140.62
2018-11-02T14:03:35.965Z,146.25
2018-11-02T14:04:35.953Z,146.25
2018-11-02T14:05:35.948Z,140.62
2018-11-02T14:06:35.934Z,140.62
2018-11-02T14:07:35.919Z,135.00
2018-11-02T14:08:35.911Z,129.37
2018-11-02T14:09:35.898Z,118.12
2018-11-02T14:10:35.889Z,118.12
2018-11-02T14:11:35.904Z,112.50
2018-11-02T14:12:35.866Z,106.87
2018-11-02T14:13:35.855Z,101.25
2018-11-02T14:14:35.843Z,90.00
2018-11-02T14:15:35.833Z,90.00
2018-11-02T14:16:35.826Z,84.37
2018-11-02T14:17:35.811Z,78.75
2018-11-02T14:18:35.870Z,78.75
2018-11-02T14:19:35.789Z,73.12
2018-11-02T14:20:35.780Z,73.12
2018-11-02T14:21:35.766Z,73.12
2018-11-02T14:22:35.756Z,67.50
2018-11-02T14:23:35.748Z,67.50
2018-11-02T14:24:35.733Z,67.50
2018-11-02T14:25:35.722Z,67.50
2018-11-02T14:26:35.722Z,67.50
2018-11-02T14:27:35.707Z,67.50
2018-11-02T14:28:35.696Z,67.50
2018-11-02T14:29:35.854Z,67.50
2018-11-02T14:30:35.685Z,67.50
2018-11-02T14:32:35.647Z,67.50
2018-11-02T14:33:35.635Z,61.87
2018-11-02T14:34:35.629Z,61.87
2018-11-02T14:35:35.612Z,61.87
2018-11-02T14:36:35.628Z,61.87
2018-11-02T14:37:35.590Z,61.87
2018-11-02T14:38:35.581Z,61.87
2018-11-02T14:39:35.568Z,61.87
2018-11-02T14:40:35.568Z,56.25
2018-11-02T14:41:35.688Z,56.25
2018-11-02T14:42:35.534Z,56.25
2018-11-02T14:43:35.523Z,56.25
2018-11-02T14:44:35.513Z,50.62
2018-11-02T14:45:35.500Z,50.62
2018-11-02T14:46:35.609Z,50.62
2018-11-02T14:47:35.479Z,50.62
2018-11-02T14:48:35.468Z,50.62
2018-11-02T14:49:35.457Z,50.62
2018-11-02T14:50:35.446Z,50.62
2018-11-02T14:51:35.436Z,50.62
2018-11-02T14:52:35.422Z,50.62
2018-11-02T14:53:35.472Z,50.62
2018-11-02T14:54:35.404Z,50.62
2018-11-02T14:55:35.389Z,50.62
2018-11-02T14:56:35.378Z,50.62
2018-11-02T14:57:35.368Z,50.62
2018-11-02T14:58:35.362Z,45.00
2018-11-02T14:59:35.394Z,45.00
2018-11-02T15:00:35.334Z,39.37
2018-11-02T15:01:35.323Z,39.37
2018-11-02T15:02:35.310Z,39.37
2018-11-02T15:03:35.300Z,33.75
2018-11-02T15:04:35.287Z,33.75
2018-11-02T15:05:35.282Z,33.75
2018-11-02T15:06:35.267Z,33.75
2018-11-02T15:07:35.254Z,33.75
2018-11-02T15:08:35.250Z,33.75
2018-11-02T15:09:35.234Z,33.75
2018-11-02T15:10:35.222Z,33.75
2018-11-02T15:11:35.329Z,28.12
2018-11-02T15:12:35.201Z,28.12
2018-11-02T15:13:35.187Z,28.12
2018-11-02T15:14:35.177Z,28.12
2018-11-02T15:15:35.165Z,28.12
2018-11-02T15:16:35.161Z,22.50
2018-11-02T15:17:35.147Z,22.50
2018-11-02T15:18:35.131Z,22.50
2018-11-02T15:19:35.121Z,16.87
2018-11-02T15:20:35.109Z,16.87
2018-11-02T15:21:35.097Z,16.87
2018-11-02T15:22:35.089Z,16.87
2018-11-02T15:23:35.076Z,16.87
2018-11-02T15:24:35.065Z,16.87
2018-11-02T15:25:35.053Z,16.87
2018-11-02T15:26:35.177Z,11.25
2018-11-02T15:27:35.030Z,11.25
2018-11-02T15:28:35.018Z,11.25
2018-11-02T15:29:35.011Z,11.25
2018-11-02T15:30:34.997Z,11.25
2018-11-02T15:31:34.987Z,11.25
2018-11-02T15:32:34.973Z,11.25
2018-11-02T15:33:34.964Z,11.25
2018-11-02T15:34:34.951Z,5.62
2018-11-02T15:35:34.939Z,5.62
2018-11-02T15:36:34.928Z,5.62
2018-11-02T15:37:34.916Z,5.62
2018-11-02T15:38:34.904Z,5.62
2018-11-02T15:39:34.894Z,5.62
2018-11-02T15:40:34.886Z,5.62
2018-11-02T15:41:34.871Z,5.62
2018-11-02T15:42:34.865Z,0.00
2018-11-02T15:43:34.848Z,0.00
2018-11-02T15:44:34.853Z,0.00
2018-11-02T15:45:34.830Z,0.00
2018-11-02T15:46:34.818Z,0.00
2018-11-02T15:47:34.801Z,0.00
2018-11-02T15:48:34.789Z,0.00
2018-11-02T15:49:34.785Z,0.00
2018-11-02T15:50:34.772Z,0.00
2018-11-02T15:51:34.756Z,0.00
2018-11-02T15:52:34.752Z,0.00
2018-11-02T15:53:34.738Z,0.00
2018-11-02T15:54:34.722Z,0.00
2018-11-02T15:55:34.715Z,0.00
2018-11-02T15:56:34.701Z,0.00
2018-11-02T15:57:34.687Z,0.00
2018-11-02T15:58:34.684Z,0.00
2018-11-02T15:59:34.664Z,0.00
2018-11-02T16:00:34.783Z,0.00
2018-11-02T16:01:34.642Z,0.00
2018-11-02T16:02:34.635Z,0.00
2018-11-02T16:03:34.621Z,0.00
2018-11-02T16:04:34.612Z,0.00
2018-11-02T16:05:34.597Z,0.00
2018-11-02T16:06:34.587Z,0.00
2018-11-02T16:10:34.544Z,0.00
2018-11-02T16:11:34.534Z,0.00
2018-11-02T16:12:34.520Z,0.00
2018-11-02T16:13:34.514Z,0.00
2018-11-02T16:14:34.586Z,0.00
2018-11-02T16:15:34.483Z,0.00
2018-11-02T16:16:34.469Z,0.00
2018-11-02T16:17:34.458Z,0.00
2018-11-02T16:18:34.451Z,0.00
2018-11-02T16:19:34.436Z,0.00
2018-11-02T16:20:34.433Z,0.00
2018-11-02T16:21:34.413Z,0.00
2018-11-02T16:22:34.403Z,0.00
2018-11-02T16:23:34.391Z,0.00
2018-11-02T16:24:34.380Z,0.00
2018-11-02T16:25:34.368Z,0.00
2018-11-02T16:26:34.359Z,0.00
2018-11-02T16:27:34.346Z,0.00
2018-11-02T16:28:34.334Z,0.00
2018-11-02T16:29:34.321Z,0.00
2018-11-02T16:30:34.320Z,0.00
2018-11-02T16:31:34.313Z,0.00
2018-11-02T16:32:34.291Z,0.00
2018-11-02T16:33:34.278Z,0.00
2018-11-02T16:34:34.266Z,0.00
2018-11-02T16:35:34.254Z,0.00
2018-11-02T16:36:34.249Z,0.00
2018-11-02T16:37:34.235Z,0.00
2018-11-02T16:38:34.224Z,0.00
2018-11-02T16:39:34.211Z,0.00
2018-11-02T16:40:34.200Z,0.00
2018-11-02T16:41:34.189Z,0.00
2018-11-02T16:42:34.183Z,0.00
2018-11-02T16:43:34.176Z,0.00
2018-11-02T16:44:34.240Z,0.00
2018-11-02T16:45:34.144Z,0.00
2018-11-02T16:46:34.137Z,0.00
2018-11-02T16:47:34.200Z,0.00
2018-11-02T16:48:34.112Z,0.00
2018-11-02T16:49:34.101Z,0.00
2018-11-02T16:50:34.266Z,0.00
2018-11-02T16:51:34.080Z,0.00
2018-11-02T16:52:34.072Z,0.00
2018-11-02T16:53:34.064Z,0.00
2018-11-02T16:54:34.103Z,0.00
2018-11-02T16:55:34.062Z,0.00
2018-11-02T16:56:34.103Z,0.00
2018-11-02T16:57:34.044Z,0.00
2018-11-02T16:58:34.008Z,0.00
2018-11-02T16:59:33.990Z,0.00
2018-11-02T17:00:33.979Z,0.00
2018-11-02T17:01:33.971Z,0.00
2018-11-02T17:02:34.074Z,0.00
2018-11-02T17:03:33.948Z,0.00
2018-11-02T17:04:33.979Z,0.00
2018-11-02T17:05:33.933Z,0.00
2018-11-02T17:06:33.916Z,0.00
2018-11-02T17:07:33.912Z,0.00
2018-11-02T17:08:33.900Z,0.00
2018-11-02T17:09:33.882Z,0.00
2018-11-02T17:10:33.872Z,0.00
2018-11-02T17:11:33.950Z,0.00
2018-11-02T17:12:33.855Z,0.00
2018-11-02T17:13:33.844Z,0.00
2018-11-02T17:14:33.831Z,0.00
2018-11-02T17:15:33.817Z,0.00
2018-11-02T17:16:33.812Z,0.00
2018-11-02T17:17:33.796Z,0.00
2018-11-02T17:18:33.789Z,0.00
2018-11-02T17:19:33.774Z,0.00
2018-11-02T17:20:33.769Z,0.00
2018-11-02T17:21:33.755Z,0.00
2018-11-02T17:22:33.753Z,0.00
2018-11-02T17:23:33.728Z,0.00
2018-11-02T17:24:33.719Z,0.00
2018-11-02T17:25:33.708Z,0.00
2018-11-02T17:26:33.700Z,0.00
2018-11-02T17:27:33.684Z,0.00
2018-11-02T17:28:33.680Z,0.00
2018-11-02T17:29:33.667Z,0.00
2018-11-02T17:30:33.652Z,0.00
2018-11-02T17:31:33.641Z,0.00
2018-11-02T17:32:33.637Z,0.00
2018-11-02T17:33:33.622Z,0.00
2018-11-02T17:34:33.608Z,0.00
2018-11-02T17:35:33.597Z,0.00
2018-11-02T17:36:33.747Z,0.00
2018-11-02T17:37:33.575Z,0.00
2018-11-02T17:38:33.565Z,0.00
2018-11-02T17:39:33.553Z,0.00
2018-11-02T17:40:33.543Z,0.00
2018-11-02T17:41:33.548Z,0.00
2018-11-02T17:42:33.539Z,0.00
2018-11-02T17:43:33.543Z,0.00
2018-11-02T17:44:33.545Z,0.00
2018-11-02T17:45:33.492Z,0.00
2018-11-02T17:46:33.491Z,0.00
2018-11-02T17:47:33.525Z,0.00
2018-11-02T17:48:33.497Z,0.00
2018-11-02T17:49:33.441Z,0.00
2018-11-02T17:50:33.437Z,0.00
2018-11-02T17:51:33.417Z,0.00
2018-11-02T17:52:33.412Z,0.00
2018-11-02T17:53:33.534Z,0.00
2018-11-02T17:54:33.387Z,0.00
2018-11-02T17:55:33.375Z,0.00
2018-11-02T17:56:33.363Z,0.00
2018-11-02T18:13:33.170Z,0.00
2018-11-02T18:14:33.284Z,0.00
2018-11-02T18:16:33.135Z,0.00
2018-11-02T18:55:32.693Z,0.00
2018-11-02T19:13:32.597Z,0.00
2018-11-02T20:16:31.780Z,0.00
